Bloomville, Wisconsin
Current Conditions -  °F | °C
As of 3:35 PM on Saturday 25 Oct 2014 (Local Time) from KRRL Reporting Station
Clear Clear  
Wind Chill: 60°   Ceiling: Unl
Heat Index: 60°   Visibility: 10mi
Dew Point: 26°   Wind: 24mph
Humidity: 27%   Direction: 310°NW
Pressure: 29.87"   Gusts: 29mph
Location:  45.3595°N, 89.45°W
Report Text: KRRL 252035Z AUTO 31021G25KT 10SM CLR 16/M03 A2987 RMK AO2 T01581033
Loading
Personal Weather Stations






























Interactive Weather Map
Tropical Storm Tracking
New forecast layout! Learn more

10-Day Weather Forecast

Advertisements
Track Severe Weather on mobile